Time,TemperatureF,DewpointF,PressureIn,WindDirection,WindDirectionDegrees,WindSpeedMPH,WindSpeedGustMPH,Humidity,HourlyPrecipIn,Conditions,Clouds,dailyrainin,SoftwareType,DateUTC
2013-03-09 00:07:00,48.2,41.2,29.93,North,0,0.0,-999.0,77,0.00,,,0.00,open2300 v1.10,2013-03-09 08:07:00,
2013-03-09 00:21:00,48.2,41.2,29.93,North,0,0.0,-999.0,77,0.00,,,0.00,open2300 v1.10,2013-03-09 08:21:00,
2013-03-09 00:36:00,48.0,41.1,29.94,North,0,0.0,-999.0,77,0.00,,,0.00,open2300 v1.10,2013-03-09 08:36:00,
2013-03-09 00:51:00,48.0,40.7,29.94,North,0,0.0,-999.0,76,0.00,,,0.00,open2300 v1.10,2013-03-09 08:51:00,
2013-03-09 01:07:00,48.0,40.7,29.96,North,0,0.0,-999.0,76,0.00,,,0.00,open2300 v1.10,2013-03-09 09:07:00,
2013-03-09 01:21:00,48.0,40.7,29.96,North,0,0.0,-999.0,76,0.00,,,0.00,open2300 v1.10,2013-03-09 09:21:00,
2013-03-09 01:36:00,48.0,40.7,29.96,North,0,0.0,-999.0,76,0.00,,,0.00,open2300 v1.10,2013-03-09 09:36:00,
2013-03-09 01:51:00,47.7,40.4,29.96,North,0,0.0,-999.0,76,0.00,,,0.00,open2300 v1.10,2013-03-09 09:51:00,
2013-03-09 02:07:00,47.7,40.4,29.96,North,0,0.0,-999.0,76,0.00,,,0.00,open2300 v1.10,2013-03-09 10:07:00,
2013-03-09 02:21:00,47.7,40.4,29.96,North,0,0.0,-999.0,76,0.00,,,0.00,open2300 v1.10,2013-03-09 10:21:00,
2013-03-09 02:36:00,47.8,40.6,29.96,North,0,0.0,-999.0,76,0.00,,,0.00,open2300 v1.10,2013-03-09 10:36:00,
2013-03-09 02:51:00,47.5,40.2,29.96,North,0,0.0,-999.0,76,0.00,,,0.00,open2300 v1.10,2013-03-09 10:51:00,
2013-03-09 03:07:00,47.3,40.1,29.96,North,0,0.0,-999.0,76,0.00,,,0.00,open2300 v1.10,2013-03-09 11:07:00,
2013-03-09 03:21:00,47.3,40.1,29.96,North,0,0.0,-999.0,76,0.00,,,0.00,open2300 v1.10,2013-03-09 11:21:00,
2013-03-09 03:36:00,47.3,40.1,29.97,North,0,0.0,-999.0,76,0.00,,,0.00,open2300 v1.10,2013-03-09 11:36:00,
2013-03-09 03:51:00,47.1,39.9,29.98,North,0,0.0,-999.0,76,0.00,,,0.00,open2300 v1.10,2013-03-09 11:51:00,
2013-03-09 04:07:00,47.1,39.9,29.99,North,0,0.0,-999.0,76,0.00,,,0.00,open2300 v1.10,2013-03-09 12:07:00,
2013-03-09 04:21:00,46.9,39.8,30.00,North,0,0.0,-999.0,76,0.00,,,0.00,open2300 v1.10,2013-03-09 12:21:00,
2013-03-09 04:36:00,46.9,39.8,30.01,North,0,0.0,-999.0,76,0.00,,,0.00,open2300 v1.10,2013-03-09 12:36:00,
2013-03-09 04:51:00,46.9,39.8,30.02,North,0,0.0,-999.0,76,0.00,,,0.00,open2300 v1.10,2013-03-09 12:51:00,
2013-03-09 05:07:00,46.8,39.6,30.03,North,0,0.0,-999.0,76,0.00,,,0.00,open2300 v1.10,2013-03-09 13:07:00,
2013-03-09 05:21:00,46.8,39.6,30.04,North,0,0.0,-999.0,76,0.00,,,0.00,open2300 v1.10,2013-03-09 13:21:00,
2013-03-09 05:36:00,46.9,39.8,30.05,North,0,0.0,-999.0,76,0.00,,,0.00,open2300 v1.10,2013-03-09 13:36:00,
2013-03-09 05:51:00,46.8,39.6,30.06,North,0,0.0,-999.0,76,0.00,,,0.00,open2300 v1.10,2013-03-09 13:51:00,
2013-03-09 06:07:00,46.6,39.4,30.07,North,0,0.0,-999.0,76,0.00,,,0.00,open2300 v1.10,2013-03-09 14:07:00,
2013-03-09 06:21:00,46.8,39.6,30.07,North,0,0.0,-999.0,76,0.00,,,0.00,open2300 v1.10,2013-03-09 14:21:00,
2013-03-09 06:36:00,46.6,39.4,30.08,North,0,0.0,-999.0,76,0.00,,,0.00,open2300 v1.10,2013-03-09 14:36:00,
2013-03-09 06:51:00,46.6,39.4,30.09,North,0,0.0,-999.0,76,0.00,,,0.00,open2300 v1.10,2013-03-09 14:51:00,
2013-03-09 07:06:00,46.6,39.4,30.09,North,0,0.0,-999.0,76,0.00,,,0.00,open2300 v1.10,2013-03-09 15:06:00,
2013-03-09 07:21:00,46.8,39.6,30.09,North,0,0.0,-999.0,76,0.00,,,0.00,open2300 v1.10,2013-03-09 15:21:00,
2013-03-09 07:36:00,47.1,40.3,30.10,North,0,0.0,-999.0,77,0.00,,,0.00,open2300 v1.10,2013-03-09 15:36:00,
2013-03-09 07:51:00,47.5,40.6,30.10,North,0,0.0,-999.0,77,0.00,,,0.00,open2300 v1.10,2013-03-09 15:51:00,
2013-03-09 08:06:00,47.8,40.9,30.11,North,0,0.0,-999.0,77,0.00,,,0.00,open2300 v1.10,2013-03-09 16:06:00,
2013-03-09 08:21:00,48.0,40.7,30.12,North,0,0.0,-999.0,76,0.00,,,0.00,open2300 v1.10,2013-03-09 16:21:00,
2013-03-09 08:36:00,48.4,40.7,30.12,North,0,0.0,-999.0,75,0.00,,,0.00,open2300 v1.10,2013-03-09 16:36:00,
2013-03-09 08:51:00,48.7,41.1,30.13,North,0,0.0,-999.0,75,0.00,,,0.00,open2300 v1.10,2013-03-09 16:51:00,
2013-03-09 09:06:00,48.9,41.3,30.13,North,0,0.0,-999.0,75,0.00,,,0.00,open2300 v1.10,2013-03-09 17:06:00,
2013-03-09 09:21:00,49.3,41.6,30.14,North,0,0.0,-999.0,75,0.00,,,0.00,open2300 v1.10,2013-03-09 17:21:00,
2013-03-09 09:36:00,49.8,41.8,30.14,North,0,0.0,-999.0,74,0.00,,,0.00,open2300 v1.10,2013-03-09 17:36:00,
2013-03-09 09:51:00,50.2,42.2,30.14,North,0,0.0,-999.0,74,0.00,,,0.00,open2300 v1.10,2013-03-09 17:51:00,
2013-03-09 10:06:00,50.7,42.4,30.15,North,0,0.0,-999.0,73,0.00,,,0.00,open2300 v1.10,2013-03-09 18:06:00,
2013-03-09 10:21:00,51.6,43.3,30.15,North,0,0.0,-999.0,73,0.00,,,0.00,open2300 v1.10,2013-03-09 18:21:00,
2013-03-09 10:36:00,52.3,44.0,30.15,North,0,0.0,-999.0,73,0.00,,,0.00,open2300 v1.10,2013-03-09 18:36:00,
2013-03-09 10:51:00,52.9,44.1,30.15,North,0,0.0,-999.0,72,0.00,,,0.00,open2300 v1.10,2013-03-09 18:51:00,
2013-03-09 11:06:00,53.2,44.4,30.16,North,0,0.0,-999.0,72,0.00,,,0.00,open2300 v1.10,2013-03-09 19:06:00,
2013-03-09 11:21:00,53.6,44.8,30.16,North,0,0.0,-999.0,72,0.00,,,0.00,open2300 v1.10,2013-03-09 19:21:00,
2013-03-09 11:36:00,53.8,44.9,30.16,North,0,0.0,-999.0,72,0.00,,,0.00,open2300 v1.10,2013-03-09 19:36:00,
2013-03-09 11:51:00,54.5,45.3,30.16,North,0,0.0,-999.0,71,0.00,,,0.00,open2300 v1.10,2013-03-09 19:51:00,
2013-03-09 12:06:00,55.0,45.8,30.16,North,0,0.0,-999.0,71,0.00,,,0.00,open2300 v1.10,2013-03-09 20:06:00,
2013-03-09 12:21:00,55.6,46.0,30.16,North,0,0.0,-999.0,70,0.00,,,0.00,open2300 v1.10,2013-03-09 20:21:00,
2013-03-09 12:36:00,56.3,45.9,30.16,North,0,0.0,-999.0,68,0.00,,,0.00,open2300 v1.10,2013-03-09 20:36:00,
2013-03-09 12:51:00,56.8,45.2,30.16,North,0,0.0,-999.0,65,0.00,,,0.00,open2300 v1.10,2013-03-09 20:51:00,
2013-03-09 13:06:00,56.8,45.2,30.16,North,0,0.0,-999.0,65,0.00,,,0.00,open2300 v1.10,2013-03-09 21:06:00,
2013-03-09 13:21:00,56.8,44.7,30.15,North,0,0.0,-999.0,64,0.00,,,0.00,open2300 v1.10,2013-03-09 21:21:00,
2013-03-09 13:36:00,56.8,44.7,30.15,North,0,0.0,-999.0,64,0.00,,,0.00,open2300 v1.10,2013-03-09 21:36:00,
2013-03-09 13:51:00,56.5,44.0,30.14,North,0,0.0,-999.0,63,0.00,,,0.00,open2300 v1.10,2013-03-09 21:51:00,
2013-03-09 14:06:00,56.8,44.7,30.14,North,0,0.0,-999.0,64,0.00,,,0.00,open2300 v1.10,2013-03-09 22:06:00,
2013-03-09 14:21:00,57.0,45.3,30.14,North,0,0.0,-999.0,65,0.00,,,0.00,open2300 v1.10,2013-03-09 22:21:00,
2013-03-09 14:36:00,57.2,45.1,30.14,North,0,0.0,-999.0,64,0.00,,,0.00,open2300 v1.10,2013-03-09 22:36:00,
2013-03-09 14:51:00,57.6,45.4,30.14,North,0,0.0,-999.0,64,0.00,,,0.00,open2300 v1.10,2013-03-09 22:51:00,
2013-03-09 15:06:00,57.9,45.4,30.14,North,0,0.0,-999.0,63,0.00,,,0.00,open2300 v1.10,2013-03-09 23:06:00,
2013-03-09 15:21:00,58.8,45.8,30.14,North,0,0.0,-999.0,62,0.00,,,0.00,open2300 v1.10,2013-03-09 23:21:00,
2013-03-09 15:36:00,58.8,45.8,30.14,North,0,0.0,-999.0,62,0.00,,,0.00,open2300 v1.10,2013-03-09 23:36:00,
2013-03-09 15:51:00,59.4,45.5,30.13,North,0,0.0,-999.0,60,0.00,,,0.00,open2300 v1.10,2013-03-09 23:51:00,
2013-03-09 16:06:00,60.1,45.7,30.13,North,0,0.0,-999.0,59,0.00,,,0.00,open2300 v1.10,2013-03-10 00:06:00,
2013-03-09 16:21:00,60.1,45.7,30.13,North,0,0.0,-999.0,59,0.00,,,0.00,open2300 v1.10,2013-03-10 00:21:00,
2013-03-09 16:36:00,61.0,46.1,30.13,North,0,0.0,-999.0,58,0.00,,,0.00,open2300 v1.10,2013-03-10 00:36:00,
2013-03-09 16:51:00,61.5,46.1,30.13,North,0,0.0,-999.0,57,0.00,,,0.00,open2300 v1.10,2013-03-10 00:51:00,
2013-03-09 17:06:00,61.3,46.5,30.12,North,0,0.0,-999.0,58,0.00,,,0.00,open2300 v1.10,2013-03-10 01:06:00,
2013-03-09 17:21:00,61.5,46.6,30.13,North,0,0.0,-999.0,58,0.00,,,0.00,open2300 v1.10,2013-03-10 01:21:00,
2013-03-09 17:36:00,61.5,46.6,30.13,North,0,0.0,-999.0,58,0.00,,,0.00,open2300 v1.10,2013-03-10 01:36:00,
2013-03-09 17:51:00,61.3,46.9,30.14,North,0,0.0,-999.0,59,0.00,,,0.00,open2300 v1.10,2013-03-10 01:51:00,
2013-03-09 18:06:00,60.8,46.5,30.14,North,0,0.0,-999.0,59,0.00,,,0.00,open2300 v1.10,2013-03-10 02:06:00,
2013-03-09 18:21:00,59.5,45.2,30.14,North,0,0.0,-999.0,59,0.00,,,0.00,open2300 v1.10,2013-03-10 02:21:00,
2013-03-09 18:36:00,58.1,44.7,30.15,North,0,0.0,-999.0,61,0.00,,,0.00,open2300 v1.10,2013-03-10 02:36:00,
2013-03-09 18:51:00,56.8,44.3,30.15,North,0,0.0,-999.0,63,0.00,,,0.00,open2300 v1.10,2013-03-10 02:51:00,
2013-03-09 19:06:00,55.6,44.0,30.15,North,0,0.0,-999.0,65,0.00,,,0.00,open2300 v1.10,2013-03-10 03:06:00,
2013-03-09 19:21:00,54.7,43.1,30.16,North,0,0.0,-999.0,65,0.00,,,0.00,open2300 v1.10,2013-03-10 03:21:00,
2013-03-09 19:36:00,54.3,43.6,30.15,North,0,0.0,-999.0,67,0.00,,,0.00,open2300 v1.10,2013-03-10 03:36:00,
2013-03-09 19:51:00,54.0,43.2,30.16,North,0,0.0,-999.0,67,0.00,,,0.00,open2300 v1.10,2013-03-10 03:51:00,
2013-03-09 20:06:00,53.8,43.4,30.16,North,0,0.0,-999.0,68,0.00,,,0.00,open2300 v1.10,2013-03-10 04:06:00,
2013-03-09 20:21:00,53.4,43.1,30.16,North,0,0.0,-999.0,68,0.00,,,0.00,open2300 v1.10,2013-03-10 04:21:00,
2013-03-09 20:36:00,53.2,42.9,30.16,North,0,0.0,-999.0,68,0.00,,,0.00,open2300 v1.10,2013-03-10 04:36:00,
2013-03-09 20:51:00,52.9,43.0,30.16,North,0,0.0,-999.0,69,0.00,,,0.00,open2300 v1.10,2013-03-10 04:51:00,
2013-03-09 21:06:00,52.7,42.8,30.16,North,0,0.0,-999.0,69,0.00,,,0.00,open2300 v1.10,2013-03-10 05:06:00,
2013-03-09 21:21:00,52.5,42.7,30.17,North,0,0.0,-999.0,69,0.00,,,0.00,open2300 v1.10,2013-03-10 05:21:00,
2013-03-09 21:36:00,52.7,42.8,30.17,North,0,0.0,-999.0,69,0.00,,,0.00,open2300 v1.10,2013-03-10 05:36:00,
2013-03-09 21:51:00,52.5,42.7,30.17,North,0,0.0,-999.0,69,0.00,,,0.00,open2300 v1.10,2013-03-10 05:51:00,
2013-03-09 22:06:00,52.5,42.7,30.17,North,0,0.0,-999.0,69,0.00,,,0.00,open2300 v1.10,2013-03-10 06:06:00,
2013-03-09 22:21:00,52.5,43.1,30.17,North,0,0.0,-999.0,70,0.00,,,0.00,open2300 v1.10,2013-03-10 06:21:00,
2013-03-09 22:36:00,52.3,42.9,30.17,North,0,0.0,-999.0,70,0.00,,,0.00,open2300 v1.10,2013-03-10 06:36:00,
2013-03-09 22:51:00,52.2,42.8,30.17,North,0,0.0,-999.0,70,0.00,,,0.00,open2300 v1.10,2013-03-10 06:51:00,
2013-03-09 23:06:00,52.0,42.6,30.17,North,0,0.0,-999.0,70,0.00,,,0.00,open2300 v1.10,2013-03-10 07:06:00,
2013-03-09 23:21:00,52.0,42.6,30.18,North,0,0.0,-999.0,70,0.00,,,0.00,open2300 v1.10,2013-03-10 07:21:00,
2013-03-09 23:36:00,52.0,42.6,30.18,North,0,0.0,-999.0,70,0.00,,,0.00,open2300 v1.10,2013-03-10 07:36:00,
2013-03-09 23:51:00,52.0,42.6,30.18,North,0,0.0,-999.0,70,0.00,,,0.00,open2300 v1.10,2013-03-10 07:51:00,